Gas Snapper — V7TZ3 — position and weather

sailwx.info

Track history (hours):
 
Tides and Currents Weather Stations Pressure Air Temp Water Temp Dewpoint Dewpoint Depression Visibility Wind Speed Wind Dir Waves Ship Positions

Gas Snapper

Last reported at 2015-Feb-28 19:29 UTC. Time now 2015-Mar-05 10:26 UTC.
Position N 41°36' E 029°27'.

Length 174 m; draft 6.8 m.

Type: Ship (hazmat cat D). MMSI: 538003911.

Date/timePositionNaut miles runAvg speedWind from/ knotsBaromVisibWave heightAir tempDewpointWater temp
2015-Feb-28 19:29N 41°36' E 029°27'1314.4
2015-Feb-28 18:33N 41°24' E 029°18'43 0.9
2015-Feb-26 20:30N 40°47' E 028°51'4 0.9
2015-Feb-26 16:34N 40°50' E 028°53'0 0.4
2015-Feb-26 15:33N 40°50' E 028°53'1 0.9
2015-Feb-26 14:34N 40°51' E 028°53'1 1.3
2015-Feb-26 13:33N 40°51' E 028°54'1 1.0
2015-Feb-26 12:33N 40°50' E 028°54'1413.7
2015-Feb-26 11:31N 40°49' E 028°35'264 6.4
2015-Feb-24 18:21N 37°44' E 024°32'48212.1
2015-Feb-23 02:33N 36°25' E 014°36'1514.4
2015-Feb-23 01:33N 36°24' E 014°18'  
2015-Feb-20 08:13N 35°59' W 005°11'1015.3
2015-Feb-20 07:34N 35°58' W 005°23'13915.4
2015-Feb-19 22:32N 36°17' W 008°13'1515.3
2015-Feb-19 21:33N 36°20' W 008°32'1515.3
2015-Feb-19 20:33N 36°23' W 008°50'5713.5
2015-Feb-19 16:20N 37°01' W 009°43'1214.9
2015-Feb-19 15:31N 37°13' W 009°46'1615.0
2015-Feb-19 14:26N 37°29' W 009°51'1315.3
2015-Feb-19 13:33N 37°42' W 009°54'1515.0
2015-Feb-19 12:33N 37°57' W 009°58'3014.9
2015-Feb-19 10:33N 38°26' W 010°08'1614.6
2015-Feb-19 09:25N 38°42' W 010°12'1415.1
2015-Feb-19 08:30N 38°56' W 010°12'  
Track history (hours):
 
Tides and Currents Weather Stations Pressure Air Temp Water Temp Dewpoint Dewpoint Depression Visibility Wind Speed Wind Dir Waves Ship Positions

Gas Snapper

Last reported at 2015-Feb-28 19:29 UTC. Time now 2015-Mar-05 10:26 UTC.
Position N 41°36' E 029°27'.

Length 174 m; draft 6.8 m.

Type: Ship (hazmat cat D). MMSI: 538003911.

Date/timePositionNaut miles runAvg speedWind from/ knotsBaromVisibWave heightAir tempDewpointWater temp
2015-Feb-28 19:29N 41°36' E 029°27'1314.4
2015-Feb-28 18:33N 41°24' E 029°18'43 0.9
2015-Feb-26 20:30N 40°47' E 028°51'4 0.9
2015-Feb-26 16:34N 40°50' E 028°53'0 0.4
2015-Feb-26 15:33N 40°50' E 028°53'1 0.9
2015-Feb-26 14:34N 40°51' E 028°53'1 1.3
2015-Feb-26 13:33N 40°51' E 028°54'1 1.0
2015-Feb-26 12:33N 40°50' E 028°54'1413.7
2015-Feb-26 11:31N 40°49' E 028°35'264 6.4
2015-Feb-24 18:21N 37°44' E 024°32'48212.1
2015-Feb-23 02:33N 36°25' E 014°36'1514.4
2015-Feb-23 01:33N 36°24' E 014°18'  
2015-Feb-20 08:13N 35°59' W 005°11'1015.3
2015-Feb-20 07:34N 35°58' W 005°23'13915.4
2015-Feb-19 22:32N 36°17' W 008°13'1515.3
2015-Feb-19 21:33N 36°20' W 008°32'1515.3
2015-Feb-19 20:33N 36°23' W 008°50'5713.5
2015-Feb-19 16:20N 37°01' W 009°43'1214.9
2015-Feb-19 15:31N 37°13' W 009°46'1615.0
2015-Feb-19 14:26N 37°29' W 009°51'1315.3
2015-Feb-19 13:33N 37°42' W 009°54'1515.0
2015-Feb-19 12:33N 37°57' W 009°58'3014.9
2015-Feb-19 10:33N 38°26' W 010°08'1614.6
2015-Feb-19 09:25N 38°42' W 010°12'1415.1
2015-Feb-19 08:30N 38°56' W 010°12'  

Dump ship's entire track history